Time;durP1;ratioP1;P1;durP2;ratioP2;P2;SDS_P1;SDS_P2;PMS_P1;PMS_P2;Temp;Humidity;BMP_temperature;BMP_pressure;BME280_temperature;BME280_humidity;BME280_pressure;Samples;Min_cycle;Max_cycle;Signal;HPM_P1;HPM_P2
2023/07/03 00:02:18;;;;;;;3.10;3.10;;;;;;;-141.02;100.00;107971.50;5112842;28;20197;-55
2023/07/03 00:04:45;;;;;;;3.10;3.10;;;;;;;-141.02;100.00;107971.50;5112843;28;20232;-56
2023/07/03 00:07:14;;;;;;;3.00;3.00;;;;;;;-141.02;100.00;107971.50;5112683;28;20204;-55
2023/07/03 00:09:41;;;;;;;3.10;3.10;;;;;;;-141.02;100.00;107971.50;5112819;28;20655;-55
2023/07/03 00:12:10;;;;;;;3.30;3.30;;;;;;;-141.02;100.00;107971.50;5112794;28;20224;-55
2023/07/03 00:14:37;;;;;;;3.50;3.40;;;;;;;-141.02;100.00;107971.50;5112927;28;20624;-55
2023/07/03 00:17:30;;;;;;;3.40;3.40;;;;;;;-141.02;100.00;107971.50;5112919;28;20193;-56
2023/07/03 00:23:18;;;;;;;3.70;3.60;;;;;;;-141.02;100.00;107971.50;5112708;28;20322;-56
2023/07/03 00:26:38;;;;;;;3.85;3.75;;;;;;;-141.02;100.00;107971.50;5112515;28;20196;-55
2023/07/03 00:29:06;;;;;;;3.92;3.83;;;;;;;-141.02;100.00;107971.50;5112463;28;20270;-56
2023/07/03 00:31:33;;;;;;;4.20;4.10;;;;;;;-141.02;100.00;107971.50;5112474;28;20253;-56
2023/07/03 00:34:52;;;;;;;4.10;4.00;;;;;;;-141.02;100.00;107969.53;5112741;28;20228;-55
2023/07/03 00:37:21;;;;;;;4.10;4.00;;;;;;;-141.02;100.00;107969.53;5112421;28;20257;-56
2023/07/03 00:40:10;;;;;;;4.10;4.00;;;;;;;-141.02;100.00;107971.50;5112706;28;20275;-57
2023/07/03 00:42:37;;;;;;;4.20;4.10;;;;;;;-141.02;100.00;107971.50;5112353;28;20655;-56
2023/07/03 00:45:19;;;;;;;4.10;4.00;;;;;;;-141.02;100.00;107971.50;5112652;28;20231;-55
2023/07/03 00:48:40;;;;;;;4.00;3.90;;;;;;;-141.02;100.00;107971.50;5111727;28;20232;-56
2023/07/03 00:54:31;;;;;;;3.70;3.60;;;;;;;-141.02;100.00;107971.50;5112497;28;20212;-56
2023/07/03 00:56:58;;;;;;;3.70;3.60;;;;;;;-141.02;100.00;107971.50;5112216;28;20239;-55
2023/07/03 00:59:45;;;;;;;3.22;3.22;;;;;;;-141.02;100.00;107971.50;5115652;28;20279;-55
2023/07/03 01:02:18;;;;;;;3.50;3.40;;;;;;;-141.02;100.00;107971.50;5116360;28;20200;-55
2023/07/03 01:08:12;;;;;;;3.22;3.22;;;;;;;-141.02;100.00;107971.50;5116132;28;20265;-55
2023/07/03 01:14:05;;;;;;;3.80;3.70;;;;;;;-141.02;100.00;107971.50;5116202;28;20210;-56
2023/07/03 01:20:01;;;;;;;3.80;3.70;;;;;;;-141.02;100.00;107971.50;5116130;28;20558;-56
2023/07/03 01:26:22;;;;;;;4.20;4.10;;;;;;;-141.02;100.00;107971.50;5116050;28;20180;-57
2023/07/03 01:29:32;;;;;;;4.30;4.20;;;;;;;-141.02;100.00;107971.50;5115746;28;20221;-56
2023/07/03 01:35:59;;;;;;;3.63;3.53;;;;;;;-141.02;100.00;107971.50;5115790;28;20192;-56
2023/07/03 01:38:28;;;;;;;3.35;3.35;;;;;;;-141.02;100.00;107971.50;5115925;28;20625;-56
2023/07/03 01:41:17;;;;;;;3.20;3.20;;;;;;;-141.02;100.00;107971.50;5115915;28;20570;-58
2023/07/03 01:51:04;;;;;;;2.60;2.60;;;;;;;-141.02;100.00;107971.50;5115377;28;20288;-55
2023/07/03 01:56:50;;;;;;;2.40;2.40;;;;;;;-141.02;100.00;107971.50;5108532;28;20201;-55
2023/07/03 01:59:24;;;;;;;2.40;2.40;;;;;;;-141.02;100.00;107971.50;5115648;28;20205;-55
2023/07/03 02:05:51;;;;;;;2.60;2.60;;;;;;;-141.02;100.00;107971.50;5115314;28;20238;-56
2023/07/03 02:08:22;;;;;;;2.60;2.60;;;;;;;-141.02;100.00;107971.50;5115081;27;20286;-55
2023/07/03 02:10:55;;;;;;;2.60;2.60;;;;;;;-141.02;100.00;107971.50;5114404;28;20272;-56
2023/07/03 02:13:22;;;;;;;2.72;2.72;;;;;;;-141.02;100.00;107971.50;5115326;28;20201;-56
2023/07/03 02:22:32;;;;;;;3.20;3.20;;;;;;;-141.02;100.00;107971.50;5114826;28;20196;-56
2023/07/03 02:28:23;;;;;;;3.00;3.00;;;;;;;-141.02;100.00;107971.50;5114591;28;20238;-56
2023/07/03 02:34:11;;;;;;;3.40;3.40;;;;;;;-141.02;100.00;107971.50;5114752;28;20682;-55
2023/07/03 02:36:40;;;;;;;3.35;3.35;;;;;;;-141.02;100.00;107971.50;5114891;28;20242;-56
2023/07/03 02:39:09;;;;;;;3.60;3.50;;;;;;;-141.02;100.00;107971.50;5114001;28;20537;-56
2023/07/03 02:41:42;;;;;;;3.83;3.72;;;;;;;-141.02;100.00;107971.50;5113659;28;20283;-56
2023/07/03 02:50:53;;;;;;;3.10;3.10;;;;;;;-141.02;100.00;107971.50;5103833;28;20687;-56
2023/07/03 02:56:42;;;;;;;3.10;3.10;;;;;;;-141.02;100.00;107971.50;5114098;28;20237;-56
2023/07/03 02:59:42;;;;;;;2.90;2.90;;;;;;;-141.02;100.00;107971.50;5114375;28;20720;-56
2023/07/03 03:02:21;;;;;;;3.00;3.00;;;;;;;-141.02;100.00;107971.50;5114098;28;20193;-56
2023/07/03 03:04:48;;;;;;;2.90;2.90;;;;;;;-141.02;100.00;107971.50;5113940;28;20189;-56
2023/07/03 03:07:49;;;;;;;3.20;3.20;;;;;;;-141.02;100.00;107971.50;5113941;28;20655;-56
2023/07/03 03:10:57;;;;;;;3.20;3.20;;;;;;;-141.02;100.00;107971.50;5113851;28;20689;-56
2023/07/03 03:16:45;;;;;;;3.10;3.10;;;;;;;-141.02;100.00;107971.50;5113720;28;20223;-56
2023/07/03 03:19:12;;;;;;;3.05;3.05;;;;;;;-141.02;100.00;107971.50;5113628;28;20189;-56
2023/07/03 03:21:39;;;;;;;2.90;2.90;;;;;;;-141.02;100.00;107971.50;5112686;27;20189;-56
2023/07/03 03:24:08;;;;;;;2.90;2.90;;;;;;;-141.02;100.00;107971.50;5113878;28;20231;-56
2023/07/03 03:26:35;;;;;;;3.00;3.00;;;;;;;-141.02;100.00;107971.50;5113817;27;20193;-56
2023/07/03 03:29:02;;;;;;;2.90;2.90;;;;;;;-141.02;100.00;107971.50;5113420;28;20809;-56
2023/07/03 03:31:58;;;;;;;3.00;3.00;;;;;;;-141.02;100.00;107971.50;5113690;28;20189;-56
2023/07/03 03:34:25;;;;;;;2.83;2.83;;;;;;;-141.02;100.00;107971.50;5113652;28;20616;-56
2023/07/03 03:36:52;;;;;;;2.47;2.47;;;;;;;-141.02;100.00;107971.50;5113343;27;20246;-56
2023/07/03 03:39:20;;;;;;;2.28;2.28;;;;;;;-141.02;100.00;107971.50;5113508;28;20201;-57
2023/07/03 03:41:47;;;;;;;2.30;2.30;;;;;;;-141.02;100.00;107971.50;5113257;28;20197;-56
2023/07/03 03:44:14;;;;;;;2.50;2.50;;;;;;;-141.02;100.00;107971.50;5113493;28;20647;-56
2023/07/03 03:46:41;;;;;;;2.70;2.70;;;;;;;-141.02;100.00;107971.50;5113346;28;20230;-57
2023/07/03 03:49:10;;;;;;;4.20;4.10;;;;;;;-141.02;100.00;107971.50;5112888;28;20748;-56
2023/07/03 03:51:37;;;;;;;5.18;5.07;;;;;;;-141.02;100.00;107971.50;5113038;28;20659;-57
2023/07/03 03:54:04;;;;;;;8.00;7.80;;;;;;;-141.02;100.00;107971.50;5113448;28;20285;-57
2023/07/03 03:56:33;;;;;;;9.40;9.10;;;;;;;-141.02;100.00;107971.50;5113061;28;20193;-57
2023/07/03 03:59:01;;;;;;;10.40;10.10;;;;;;;-141.02;100.00;107969.53;5113028;28;20651;-57
2023/07/03 04:01:28;;;;;;;12.88;12.48;;;;;;;-141.02;100.00;106967.91;5113332;28;20200;-56
2023/07/03 04:03:55;;;;;;;13.50;13.00;;;;;;;-141.02;100.00;105966.59;5112841;27;20242;-57
2023/07/03 04:06:22;;;;;;;15.10;14.50;;;;;;;-141.02;100.00;105215.78;5112832;28;20193;-56
2023/07/03 04:08:49;;;;;;;13.98;13.48;;;;;;;-141.02;100.00;105215.78;5112664;28;20260;-57
2023/07/03 04:11:16;;;;;;;13.65;13.15;;;;;;;-141.02;100.00;104965.56;5112752;28;20239;-56
2023/07/03 04:13:44;;;;;;;13.90;13.40;;;;;;;-141.02;100.00;105215.78;5112635;28;20236;-56
2023/07/03 04:16:14;;;;;;;14.15;13.65;;;;;;;-141.02;100.00;103964.81;5112794;28;20600;-56
2023/07/03 04:18:41;;;;;;;14.68;14.07;;;;;;;-141.02;100.00;103714.66;5112935;28;20205;-56
2023/07/03 04:21:08;;;;;;;15.30;14.70;;;;;;;-141.02;100.00;102714.25;5112543;28;20193;-56
2023/07/03 04:23:35;;;;;;;14.50;13.90;;;;;;;-141.02;100.00;102714.25;5112531;28;20197;-58
2023/07/03 04:26:03;;;;;;;14.55;13.95;;;;;;;-141.02;100.00;102214.16;5112815;28;20208;-56
2023/07/03 04:28:30;;;;;;;14.38;13.77;;;;;;;-141.02;100.00;102464.22;5112382;28;20282;-56
2023/07/03 04:30:59;;;;;;;14.32;13.82;;;;;;;-141.02;100.00;102214.16;5112768;28;20197;-56
2023/07/03 04:33:26;;;;;;;13.43;12.93;;;;;;;-141.02;100.00;103464.53;5112344;28;20197;-56
2023/07/03 04:35:53;;;;;;;13.88;13.38;;;;;;;-141.02;100.00;102964.34;5112396;28;20235;-59
2023/07/03 04:38:23;;;;;;;13.90;13.30;;;;;;;-141.02;100.00;102964.34;5112282;28;20193;-56
2023/07/03 04:40:51;;;;;;;14.70;14.00;;;;;;;-141.02;100.00;101964.16;5112675;28;20197;-56
2023/07/03 04:43:18;;;;;;;15.02;14.32;;;;;;;-141.02;100.00;101964.16;5112612;28;20215;-56
2023/07/03 04:45:46;;;;;;;14.38;13.77;;;;;;;-141.02;100.00;102214.16;5112255;28;20254;-56
2023/07/03 04:48:16;;;;;;;14.68;14.07;;;;;;;-141.02;100.00;102464.22;5112014;28;20228;-57
2023/07/03 04:50:46;;;;;;;14.52;13.93;;;;;;;-141.02;100.00;101964.16;5112181;28;20182;-56
2023/07/03 04:53:13;;;;;;;14.40;13.70;;;;;;;-141.02;100.00;102464.22;5112201;28;20205;-57
2023/07/03 04:55:40;;;;;;;14.65;13.95;;;;;;;-141.02;100.00;101714.16;5112188;28;20257;-56
2023/07/03 04:58:07;;;;;;;14.93;14.13;;;;;;;-141.02;100.00;101214.22;5112514;28;20250;-56
2023/07/03 05:00:34;;;;;;;15.30;14.50;;;;;;;-141.02;100.00;100964.25;5112188;28;20197;-56
2023/07/03 05:03:03;;;;;;;15.25;14.45;;;;;;;-141.02;100.00;100714.34;5112431;28;20250;-58
2023/07/03 05:05:32;;;;;;;15.63;14.73;;;;;;;-141.02;100.00;101214.22;5112160;28;20197;-57
2023/07/03 05:07:59;;;;;;;15.52;14.63;;;;;;;-141.02;100.00;100714.34;5111957;28;20198;-56
2023/07/03 05:10:26;;;;;;;15.57;14.68;;;;;;;-141.02;100.00;100464.44;5112348;28;20278;-57
2023/07/03 05:12:53;;;;;;;15.55;14.65;;;;;;;-141.02;100.00;100214.53;5112274;28;20193;-56
2023/07/03 05:15:24;;;;;;;15.63;14.73;;;;;;;-141.02;100.00;99964.66;5112350;28;20193;-57
2023/07/03 05:17:54;;;;;;;15.52;14.73;;;;;;;-141.02;100.00;100214.53;5112029;28;20197;-56
2023/07/03 05:20:22;;;;;;;15.52;14.63;;;;;;;-141.02;100.00;99964.66;5112230;28;20197;-56
2023/07/03 05:22:51;;;;;;;15.68;14.77;;;;;;;-141.02;100.00;99215.16;5112270;28;20221;-58
2023/07/03 05:25:19;;;;;;;14.90;14.10;;;;;;;-141.02;100.00;99215.16;5112110;28;20554;-57
2023/07/03 05:27:48;;;;;;;14.20;13.50;;;;;;;-141.02;100.00;100214.53;5112208;28;20246;-56
2023/07/03 05:30:15;;;;;;;13.60;13.00;;;;;;;-141.02;100.00;100714.34;5111604;28;20237;-57
2023/07/03 05:32:42;;;;;;;12.93;12.43;;;;;;;-141.02;100.00;101464.19;5111729;28;20243;-60
2023/07/03 05:35:10;;;;;;;12.48;12.07;;;;;;;-141.02;100.00;102214.16;5112031;28;20243;-63
2023/07/03 05:37:38;;;;;;;12.20;11.80;;;;;;;-141.02;100.00;103964.81;5111768;28;20193;-57
2023/07/03 05:40:08;;;;;;;12.35;11.95;;;;;;;-141.02;100.00;103964.81;5111721;28;20189;-56
2023/07/03 05:42:36;;;;;;;15.85;14.68;;;;;;;-141.02;100.00;103464.53;5111659;28;20218;-57
2023/07/03 05:45:03;;;;;;;12.77;12.27;;;;;;;-141.02;100.00;103214.44;5112623;28;20197;-56
2023/07/03 05:47:30;;;;;;;12.40;12.00;;;;;;;-141.02;100.00;103214.44;5115661;28;20189;-59
2023/07/03 05:49:58;;;;;;;12.25;11.85;;;;;;;-141.02;100.00;103464.53;5074617;28;20226;-59
2023/07/03 05:52:25;;;;;;;12.82;12.32;;;;;;;-141.02;100.00;103464.53;5074715;28;20643;-65
2023/07/03 05:54:52;;;;;;;13.30;12.80;;;;;;;-141.02;100.00;104214.97;5074793;28;20209;-57
2023/07/03 05:57:21;;;;;;;13.50;12.90;;;;;;;-141.02;100.00;103714.66;5074928;28;20621;-56
2023/07/03 05:59:50;;;;;;;14.38;13.70;;;;;;;-141.02;100.00;103714.66;5074770;28;20613;-57
2023/07/03 06:02:18;;;;;;;14.48;13.77;;;;;;;-141.02;100.00;102214.16;5074543;28;20222;-56
2023/07/03 06:04:45;;;;;;;14.38;13.68;;;;;;;-141.02;100.00;102464.22;5074451;28;20205;-57
2023/07/03 06:07:12;;;;;;;14.65;13.95;;;;;;;-141.02;100.00;101714.16;5074781;28;20194;-58
2023/07/03 06:09:39;;;;;;;14.80;14.10;;;;;;;-141.02;100.00;101464.19;5074613;28;20225;-58
2023/07/03 06:12:07;;;;;;;15.27;14.57;;;;;;;-141.02;100.00;102214.16;5074377;28;20248;-56
2023/07/03 06:14:36;;;;;;;14.30;13.70;;;;;;;-141.02;100.00;102214.16;5074327;28;20225;-57
2023/07/03 06:17:03;;;;;;;14.63;13.93;;;;;;;-141.02;100.00;101214.22;5074497;28;20380;-63
2023/07/03 06:19:30;;;;;;;13.88;13.27;;;;;;;-141.02;100.00;101964.16;5074588;28;20191;-57
2023/07/03 06:21:58;;;;;;;13.60;13.00;;;;;;;-141.02;100.00;101464.19;5074461;28;20277;-57
2023/07/03 06:24:25;;;;;;;13.68;13.07;;;;;;;-141.02;100.00;101714.16;5074122;28;20576;-58
2023/07/03 06:26:53;;;;;;;14.25;13.65;;;;;;;-141.02;100.00;102214.16;5074062;28;20198;-67
2023/07/03 06:29:20;;;;;;;15.18;14.48;;;;;;;-141.02;100.00;101714.16;5074196;28;20305;-57
2023/07/03 06:31:52;;;;;;;14.10;13.40;;;;;;;-141.02;100.00;101714.16;5073929;28;20206;-56
2023/07/03 06:34:19;;;;;;;13.88;13.27;;;;;;;-141.02;100.00;101464.19;5073988;28;20182;-57
2023/07/03 06:36:46;;;;;;;14.15;13.45;;;;;;;-141.02;100.00;100964.25;5074247;28;20194;-57
2023/07/03 06:39:13;;;;;;;14.80;14.00;;;;;;;-141.02;100.00;99964.66;5073854;28;20692;-61
2023/07/03 06:41:40;;;;;;;14.70;13.90;;;;;;;-141.02;100.00;99215.16;5073965;28;20191;-57
2023/07/03 06:44:12;;;;;;;14.20;13.50;;;;;;;-141.02;100.00;100464.44;5074028;28;20195;-60
2023/07/03 06:46:39;;;;;;;14.10;13.40;;;;;;;-141.02;100.00;99714.81;5074031;28;20194;-66
2023/07/03 06:49:08;;;;;;;14.68;13.88;;;;;;;-141.02;100.00;98965.34;5100378;28;20228;-56
2023/07/03 06:51:35;;;;;;;15.05;14.25;;;;;;;-141.02;100.00;98715.56;5114441;28;20251;-58
2023/07/03 06:54:02;;;;;;;15.05;14.25;;;;;;;-141.02;100.00;98465.78;5114434;28;20246;-56
2023/07/03 06:56:30;;;;;;;15.20;14.30;;;;;;;-141.02;100.00;98216.03;5114254;28;20193;-58
2023/07/03 06:58:57;;;;;;;20.00;18.70;;;;;;;-141.02;100.00;98465.78;5114068;28;20592;-57
2023/07/03 07:01:27;;;;;;;16.27;15.27;;;;;;;-141.02;100.00;98465.78;5114003;28;20292;-57
2023/07/03 07:03:54;;;;;;;16.05;14.95;;;;;;;-141.02;100.00;96218.69;5113987;28;20250;-58
2023/07/03 07:06:24;;;;;;;15.65;14.65;;;;;;;-141.02;100.00;96967.56;5113880;28;20200;-61
2023/07/03 07:08:52;;;;;;;16.10;15.00;;;;;;;-141.02;100.00;96468.31;5113749;28;20681;-57
2023/07/03 07:11:21;;;;;;;15.85;14.85;;;;;;;-141.02;100.00;97217.22;5113804;28;20227;-57
2023/07/03 07:13:50;;;;;;;16.02;15.02;;;;;;;-141.02;100.00;96218.69;5114091;28;20280;-70
2023/07/03 07:16:19;;;;;;;17.23;16.02;;;;;;;-141.02;100.00;96468.31;5113611;28;20725;-57
2023/07/03 07:18:48;;;;;;;16.98;15.88;;;;;;;-141.02;100.00;96717.94;5113643;28;20675;-60
2023/07/03 07:21:15;;;;;;;16.58;15.45;;;;;;;-141.02;100.00;95719.53;5113687;28;20273;-57
2023/07/03 07:23:43;;;;;;;18.00;16.70;;;;;;;-141.02;100.00;94222.50;5113904;28;20201;-56
2023/07/03 07:26:10;;;;;;;17.02;15.82;;;;;;;-141.02;100.00;95220.47;5113550;28;20639;-57
2023/07/03 07:28:37;;;;;;;17.88;16.58;;;;;;;-141.02;100.00;93723.63;5113489;28;20292;-57
2023/07/03 07:31:04;;;;;;;17.60;16.30;;;;;;;-141.02;100.00;94721.44;5113331;28;20232;-56
2023/07/03 07:33:31;;;;;;;18.63;17.23;;;;;;;-141.02;97.83;93723.63;5113750;28;20291;-57
2023/07/03 07:35:58;;;;;;;18.90;17.40;;;;;;;-141.02;97.73;93973.06;5113444;28;20275;-57
2023/07/03 07:38:25;;;;;;;18.27;16.88;;;;;;;-141.02;98.08;93474.22;5113249;28;20279;-57
2023/07/03 07:41:02;;;;;;;18.33;16.92;;;;;;;-141.02;99.71;93973.06;5113509;28;20200;-58
2023/07/03 07:43:30;;;;;;;18.45;17.05;;;;;;;-141.02;94.29;93224.84;5113188;28;20185;-58
2023/07/03 07:45:57;;;;;;;18.77;17.27;;;;;;;-141.02;94.00;92476.78;5113386;28;20204;-57
2023/07/03 07:48:24;;;;;;;18.67;17.17;;;;;;;-141.02;95.19;92726.13;5113095;28;20314;-56
2023/07/03 07:50:51;;;;;;;18.30;16.90;;;;;;;-141.02;97.36;92975.47;5113182;28;20261;-57
2023/07/03 07:53:18;;;;;;;18.40;17.00;;;;;;;-141.02;94.30;92227.47;5113016;28;20193;-60
2023/07/03 07:55:45;;;;;;;18.45;17.05;;;;;;;-141.02;95.01;92476.78;5112849;28;20291;-57
2023/07/03 07:58:14;;;;;;;18.38;16.98;;;;;;;-141.02;92.46;91978.16;5113200;28;20269;-63
2023/07/03 08:00:41;;;;;;;17.88;16.58;;;;;;;-141.02;97.60;91978.16;5112809;28;20197;-62
2023/07/03 08:03:08;;;;;;;17.85;16.55;;;;;;;-141.02;96.61;92476.78;5112811;28;20197;-63
2023/07/03 08:05:37;;;;;;;17.63;16.33;;;;;;;-141.02;98.48;93973.06;5112864;28;20190;-57
2023/07/03 08:08:05;;;;;;;17.92;16.63;;;;;;;-141.02;97.52;93224.84;5112005;28;20197;-59
2023/07/03 08:10:32;;;;;;;18.02;16.63;;;;;;;-141.02;89.46;92726.13;5112574;28;20224;-58
2023/07/03 08:12:59;;;;;;;19.05;17.45;;;;;;;-141.02;86.34;91978.16;5112895;28;20629;-65
2023/07/03 08:15:27;;;;;;;18.13;16.73;;;;;;;-141.02;94.14;92476.78;5112535;28;20200;-58
2023/07/03 08:17:55;;;;;;;18.88;17.38;;;;;;;-141.02;89.53;91978.16;5112813;28;20232;-67
2023/07/03 08:20:22;;;;;;;18.20;16.70;;;;;;;-141.02;90.43;90981.13;5112958;28;20197;-57
2023/07/03 08:22:49;;;;;;;18.52;17.02;;;;;;;-141.02;90.65;92476.78;5112467;28;20228;-58
2023/07/03 08:25:16;;;;;;;18.83;17.23;;;;;;;-141.02;86.23;92476.78;5112693;27;20196;-61
2023/07/03 08:27:46;;;;;;;19.45;17.83;;;;;;;-141.02;85.43;92726.13;5112497;28;20189;-59
2023/07/03 08:30:14;;;;;;;20.67;19.08;;;;;;;-141.02;83.64;91978.16;5112164;28;20231;-57
2023/07/03 08:32:43;;;;;;;19.63;17.92;;;;;;;-141.02;79.67;91978.16;5112697;28;20204;-57
2023/07/03 08:35:10;;;;;;;19.50;17.80;;;;;;;-141.02;85.28;91978.16;5112378;28;20667;-58
2023/07/03 08:37:37;;;;;;;19.35;17.75;;;;;;;-141.02;84.66;89735.28;5112285;28;20207;-59
2023/07/03 08:40:06;;;;;;;18.63;17.13;;;;;;;-141.02;90.91;88987.97;5112356;28;20296;-58
2023/07/03 08:42:36;;;;;;;18.10;16.70;;;;;;;-141.02;92.10;88489.84;5112527;28;20279;-58
2023/07/03 08:45:07;;;;;;;18.25;16.85;;;;;;;-141.02;92.29;89486.16;5112264;28;20185;-62
2023/07/03 08:47:35;;;;;;;20.48;18.85;;;;;;;-141.02;91.56;89486.16;5112375;28;20216;-62
2023/07/03 08:50:07;;;;;;;18.73;17.23;;;;;;;-141.02;91.18;88738.88;5112203;28;20212;-65
2023/07/03 08:52:40;;;;;;;18.00;16.60;;;;;;;-141.02;94.43;88987.97;5112336;28;20193;-60
2023/07/03 08:55:11;;;;;;;17.88;16.58;;;;;;;-141.02;95.02;89486.16;5112489;28;20187;-59
2023/07/03 08:57:39;;;;;;;18.17;16.77;;;;;;;-141.02;93.59;88240.81;5111968;28;20189;-67
2023/07/03 09:00:11;;;;;;;18.13;16.73;;;;;;;-141.02;94.23;87991.81;5112298;28;20255;-57
2023/07/03 09:02:45;;;;;;;17.85;16.55;;;;;;;-141.02;97.51;88987.97;5112436;28;20189;-58
2023/07/03 09:05:29;;;;;;;18.17;16.77;;;;;;;-141.02;93.34;87991.81;5112456;28;20185;-58
2023/07/03 09:08:02;;;;;;;18.23;16.83;;;;;;;-141.02;93.04;87991.81;5112040;28;20735;-57
2023/07/03 09:10:34;;;;;;;18.38;16.98;;;;;;;-141.02;94.38;90482.72;5111933;28;20300;-62
2023/07/03 09:13:08;;;;;;;19.23;17.65;;;;;;;-141.02;91.45;89486.16;5112059;28;20193;-58
2023/07/03 09:15:40;;;;;;;20.45;18.88;;;;;;;-141.02;87.96;88240.81;5111955;28;20246;-67
2023/07/03 09:18:13;;;;;;;18.63;17.13;;;;;;;-141.02;87.04;88738.88;5112334;28;20213;-57
2023/07/03 09:20:42;;;;;;;18.80;17.30;;;;;;;-141.02;85.86;88987.97;5113980;28;20186;-57
2023/07/03 09:23:17;;;;;;;19.30;17.60;;;;;;;-141.02;83.87;87991.81;5115861;28;20197;-58
2023/07/03 09:25:51;;;;;;;19.98;18.27;;;;;;;-141.02;83.24;87991.81;5116214;28;20224;-63
2023/07/03 09:28:17;;;;;;;19.67;17.98;;;;;;;-141.02;84.17;87991.81;5116210;28;20197;-60
2023/07/03 09:30:44;;;;;;;20.15;18.35;;;;;;;-141.02;82.68;88240.81;5115973;28;20229;-59
2023/07/03 09:33:11;;;;;;;19.75;18.05;;;;;;;-141.02;84.05;90731.94;5115741;28;20288;-58
2023/07/03 09:35:40;;;;;;;20.23;18.42;;;;;;;-141.02;80.27;88738.88;5116399;28;20189;-58
2023/07/03 09:38:15;;;;;;;21.20;19.30;;;;;;;-141.02;78.65;87493.84;5115534;28;20267;-59
2023/07/03 09:40:44;;;;;;;20.95;19.05;;;;;;;-141.02;79.99;86249.22;5115972;28;20217;-61
2023/07/03 09:43:18;;;;;;;21.30;19.40;;;;;;;-141.02;84.23;86498.09;5115439;28;20189;-57
2023/07/03 09:45:46;;;;;;;20.38;18.63;;;;;;;-141.02;85.61;86747.00;5115808;28;20189;-58
2023/07/03 09:48:18;;;;;;;20.10;18.40;;;;;;;-141.02;86.89;87742.81;5115249;28;20271;-63
2023/07/03 09:50:46;;;;;;;20.70;18.90;;;;;;;-141.02;81.27;86995.94;5115365;28;20300;-65
2023/07/03 09:53:19;;;;;;;20.45;18.65;;;;;;;-141.02;83.70;88240.81;5115619;28;20250;-57
2023/07/03 09:55:52;;;;;;;21.15;19.25;;;;;;;-141.02;78.39;87493.84;5115676;28;20182;-58
2023/07/03 09:58:19;;;;;;;21.17;19.27;;;;;;;-141.02;80.91;88489.84;5115309;28;20702;-58
2023/07/03 10:00:48;;;;;;;21.42;19.48;;;;;;;-141.02;77.12;88489.84;5115105;28;20205;-57
2023/07/03 10:03:24;;;;;;;21.10;19.20;;;;;;;-141.02;74.77;87493.84;5115114;28;20224;-58
2023/07/03 10:05:51;;;;;;;22.10;20.10;;;;;;;-141.02;74.51;87493.84;5115171;28;20280;-58
2023/07/03 10:08:22;;;;;;;21.77;19.88;;;;;;;-141.02;77.61;87742.81;5115343;28;20189;-57
2023/07/03 10:10:51;;;;;;;21.92;19.92;;;;;;;-141.02;71.88;85751.50;5115259;28;20678;-58
2023/07/03 10:13:25;;;;;;;21.90;19.90;;;;;;;-141.02;72.60;86249.22;5115199;28;20201;-59
2023/07/03 10:15:54;;;;;;;21.38;19.42;;;;;;;-141.02;73.64;86747.00;5115315;28;20245;-57
2023/07/03 10:18:27;;;;;;;21.75;19.85;;;;;;;-141.02;80.41;87244.88;5114834;28;20663;-57
2023/07/03 10:20:54;;;;;;;21.80;19.80;;;;;;;-141.02;74.59;86000.34;5114889;28;20211;-62
2023/07/03 10:23:29;;;;;;;21.52;19.63;;;;;;;-141.02;79.64;87742.81;5115107;28;20197;-57
2023/07/03 10:26:01;;;;;;;21.95;19.95;;;;;;;-141.02;73.98;86995.94;5114835;28;20185;-57
2023/07/03 10:28:33;;;;;;;22.23;20.13;;;;;;;-141.02;72.28;88240.81;5115029;28;20181;-58
2023/07/03 10:31:05;;;;;;;22.58;20.48;;;;;;;-141.02;74.62;89486.16;5114365;28;20249;-58
2023/07/03 10:33:37;;;;;;;23.00;20.80;;;;;;;-141.02;67.42;86498.09;5114680;28;20224;-58
2023/07/03 10:36:11;;;;;;;22.42;20.33;;;;;;;-141.02;68.75;85253.84;5114646;28;20193;-58
2023/07/03 10:38:46;;;;;;;22.48;20.38;;;;;;;-141.02;69.13;84756.25;5114824;28;20265;-61
2023/07/03 10:41:18;;;;;;;22.85;20.65;;;;;;;-141.02;65.23;84258.75;5114494;28;20188;-59
2023/07/03 10:43:58;;;;;;;22.80;20.60;;;;;;;-141.02;66.62;84507.50;5114621;28;20614;-57
2023/07/03 10:46:31;;;;;;;23.42;21.23;;;;;;;-141.02;69.49;84756.25;5114639;28;20635;-61
2023/07/03 10:49:04;;;;;;;23.48;21.27;;;;;;;-141.02;68.37;83512.63;5114153;28;20801;-58
2023/07/03 10:51:38;;;;;;;23.27;21.08;;;;;;;-141.02;73.28;83263.97;5114251;28;20252;-57
2023/07/03 10:54:15;;;;;;;22.05;20.00;;;;;;;-141.02;71.26;82269.47;5114286;28;20280;-63
2023/07/03 10:56:45;;;;;;;23.50;21.30;;;;;;;-141.02;74.08;82518.06;5114506;28;20218;-57
2023/07/03 10:59:20;;;;;;;22.67;20.48;;;;;;;-141.02;71.28;81275.25;5114187;28;20276;-59
2023/07/03 11:01:55;;;;;;;22.10;20.00;;;;;;;-141.02;73.84;82766.69;5114372;28;20191;-57
2023/07/03 11:04:32;;;;;;;22.70;20.60;;;;;;;-141.02;71.02;81772.31;5114433;28;20257;-61
2023/07/03 11:07:06;;;;;;;22.52;20.42;;;;;;;-141.02;72.55;81523.75;5114279;28;20220;-58
2023/07/03 11:09:44;;;;;;;22.75;20.63;;;;;;;-141.02;71.01;82766.69;5113991;28;20714;-61
2023/07/03 11:12:21;;;;;;;22.30;20.20;;;;;;;-141.02;67.07;83263.97;5113897;28;20233;-57
2023/07/03 11:15:02;;;;;;;22.27;20.17;;;;;;;-141.02;63.20;82766.69;5114168;28;20216;-57
2023/07/03 11:17:36;;;;;;;22.98;20.77;;;;;;;-141.02;63.12;82518.06;5113822;28;20733;-60
2023/07/03 11:20:09;;;;;;;23.05;20.85;;;;;;;-141.02;60.25;82766.69;5114098;27;20195;-58
2023/07/03 11:22:44;;;;;;;23.63;21.33;;;;;;;-141.02;58.48;81026.72;5114066;28;20189;-59
2023/07/03 11:25:20;;;;;;;23.20;20.90;;;;;;;-141.02;57.87;78294.28;5113942;28;20185;-63
2023/07/03 11:27:54;;;;;;;23.15;20.85;;;;;;;-141.02;59.73;78294.28;5113704;28;20230;-59
2023/07/03 11:30:25;;;;;;;23.08;20.88;;;;;;;-141.02;64.69;78790.94;5113531;28;20185;-57
2023/07/03 11:32:54;;;;;;;24.02;21.73;;;;;;;-141.02;64.25;79039.28;5113602;28;20229;-68
2023/07/03 11:35:21;;;;;;;23.15;20.85;;;;;;;-141.02;58.26;77549.47;5113421;28;20200;-68
2023/07/03 11:37:51;;;;;;;23.70;21.40;;;;;;;-141.02;59.36;78790.94;5113460;28;20201;-58
2023/07/03 11:40:29;;;;;;;24.38;22.02;;;;;;;-141.02;60.37;76556.59;5113716;27;20189;-67
2023/07/03 11:43:29;;;;;;;22.98;20.67;;;;;;;-141.02;60.21;77797.72;5112752;28;20189;-66
2023/07/03 11:46:06;;;;;;;23.23;20.92;;;;;;;-141.02;61.41;77797.72;5109928;28;20280;-66
2023/07/03 11:48:42;;;;;;;22.85;20.55;;;;;;;-141.02;62.38;77301.22;5113115;28;20224;-68
2023/07/03 11:51:12;;;;;;;23.45;21.15;;;;;;;-141.02;64.65;78790.94;5113070;28;20258;-59
2023/07/03 11:53:45;;;;;;;22.98;20.75;;;;;;;-141.02;64.76;78542.63;5113338;28;20266;-69
2023/07/03 11:56:35;;;;;;;22.70;20.50;;;;;;;-141.02;64.33;78294.28;5113403;28;20185;-66
2023/07/03 11:59:04;;;;;;;23.25;20.95;;;;;;;-141.02;61.86;75812.16;5112873;28;20254;-68
2023/07/03 12:01:31;;;;;;;22.73;20.52;;;;;;;-141.02;63.58;76060.28;5113205;28;20196;-60
2023/07/03 12:04:01;;;;;;;22.90;20.67;;;;;;;-141.02;63.61;74819.81;5112874;28;20242;-68
2023/07/03 12:06:49;;;;;;;23.08;20.88;;;;;;;-141.02;62.97;73579.75;5113186;28;20651;-62
2023/07/03 12:09:28;;;;;;;22.52;20.33;;;;;;;-141.02;62.06;74819.81;5112870;28;20679;-61
2023/07/03 12:12:14;;;;;;;22.50;20.30;;;;;;;-141.02;62.65;78790.94;5112962;28;20295;-62
2023/07/03 12:14:57;;;;;;;22.98;20.77;;;;;;;-141.02;62.94;78294.28;5113117;28;20631;-57
2023/07/03 12:17:27;;;;;;;22.88;20.58;;;;;;;-141.02;58.91;77549.47;5113055;28;20189;-60
2023/07/03 12:19:57;;;;;;;23.05;20.85;;;;;;;-141.02;60.26;78790.94;5112664;28;20200;-57
2023/07/03 12:22:27;;;;;;;23.10;20.83;;;;;;;-141.02;59.95;76556.59;5112720;27;20678;-66